Terminal Aerodrome Forecast
Issued by NWS

Home | Current Version | Previous Version | Text Only | Print | Product List | Glossary Off
Versions: 1 2 3 4 5 6 7 8 9 10 11 12

000
FTUS43 KICT 301721
TAFSLN
TAF
KSLN 301721Z 3018/3118 14008KT P6SM SCT120
     FM310900 18006KT P6SM SCT250
     FM311200 21012KT P6SM BKN250=

USA.gov is the U.S. government's official web portal to all federal, state and local government web resources and services.